sensor_id;sensor_type;location;lat;lon;timestamp;P1;durP1;ratioP1;P2;durP2;ratioP2
3689;SDS011;1861;50.240;8.596;2024-01-06T00:01:18;3.33;;;1.93;;
3689;SDS011;1861;50.240;8.596;2024-01-06T00:03:46;5.33;;;1.97;;
3689;SDS011;1861;50.240;8.596;2024-01-06T00:06:15;4.03;;;2.10;;
3689;SDS011;1861;50.240;8.596;2024-01-06T00:08:43;4.20;;;2.50;;
3689;SDS011;1861;50.240;8.596;2024-01-06T00:11:12;3.30;;;1.83;;
3689;SDS011;1861;50.240;8.596;2024-01-06T00:13:40;6.00;;;1.77;;
3689;SDS011;1861;50.240;8.596;2024-01-06T00:16:08;2.50;;;1.73;;
3689;SDS011;1861;50.240;8.596;2024-01-06T00:18:37;4.13;;;2.57;;
3689;SDS011;1861;50.240;8.596;2024-01-06T00:21:05;10.90;;;2.30;;
3689;SDS011;1861;50.240;8.596;2024-01-06T00:23:33;6.43;;;2.50;;
3689;SDS011;1861;50.240;8.596;2024-01-06T00:26:01;2.43;;;1.80;;
3689;SDS011;1861;50.240;8.596;2024-01-06T00:28:31;4.33;;;1.50;;
3689;SDS011;1861;50.240;8.596;2024-01-06T00:30:59;2.00;;;1.50;;
3689;SDS011;1861;50.240;8.596;2024-01-06T00:33:27;4.40;;;2.00;;
3689;SDS011;1861;50.240;8.596;2024-01-06T00:35:56;3.07;;;1.40;;
3689;SDS011;1861;50.240;8.596;2024-01-06T00:38:24;3.30;;;1.90;;
3689;SDS011;1861;50.240;8.596;2024-01-06T00:40:52;5.93;;;1.80;;
3689;SDS011;1861;50.240;8.596;2024-01-06T00:43:20;7.30;;;1.37;;
3689;SDS011;1861;50.240;8.596;2024-01-06T00:45:49;2.10;;;1.60;;
3689;SDS011;1861;50.240;8.596;2024-01-06T00:48:17;6.03;;;1.77;;
3689;SDS011;1861;50.240;8.596;2024-01-06T00:50:46;4.13;;;1.50;;
3689;SDS011;1861;50.240;8.596;2024-01-06T00:53:14;3.50;;;1.90;;
3689;SDS011;1861;50.240;8.596;2024-01-06T00:55:42;3.50;;;1.47;;
3689;SDS011;1861;50.240;8.596;2024-01-06T00:58:10;4.20;;;1.97;;
3689;SDS011;1861;50.240;8.596;2024-01-06T01:00:39;4.77;;;2.30;;
3689;SDS011;1861;50.240;8.596;2024-01-06T01:03:09;7.03;;;1.60;;
3689;SDS011;1861;50.240;8.596;2024-01-06T01:05:37;4.00;;;1.43;;
3689;SDS011;1861;50.240;8.596;2024-01-06T01:08:05;3.87;;;1.80;;
3689;SDS011;1861;50.240;8.596;2024-01-06T01:10:34;4.33;;;1.67;;
3689;SDS011;1861;50.240;8.596;2024-01-06T01:13:02;2.33;;;1.40;;
3689;SDS011;1861;50.240;8.596;2024-01-06T01:15:30;5.77;;;1.40;;
3689;SDS011;1861;50.240;8.596;2024-01-06T01:17:58;11.77;;;1.50;;
3689;SDS011;1861;50.240;8.596;2024-01-06T01:20:28;2.43;;;1.27;;
3689;SDS011;1861;50.240;8.596;2024-01-06T01:22:56;2.10;;;1.33;;
3689;SDS011;1861;50.240;8.596;2024-01-06T01:25:24;3.73;;;1.50;;
3689;SDS011;1861;50.240;8.596;2024-01-06T01:27:53;3.73;;;1.40;;
3689;SDS011;1861;50.240;8.596;2024-01-06T01:30:21;3.20;;;1.50;;
3689;SDS011;1861;50.240;8.596;2024-01-06T01:32:49;1.23;;;0.90;;
3689;SDS011;1861;50.240;8.596;2024-01-06T01:35:17;4.33;;;1.40;;
3689;SDS011;1861;50.240;8.596;2024-01-06T01:37:47;4.60;;;1.10;;
3689;SDS011;1861;50.240;8.596;2024-01-06T01:40:15;4.93;;;1.60;;
3689;SDS011;1861;50.240;8.596;2024-01-06T01:42:43;4.90;;;1.30;;
3689;SDS011;1861;50.240;8.596;2024-01-06T01:45:12;4.50;;;1.63;;
3689;SDS011;1861;50.240;8.596;2024-01-06T01:47:40;2.53;;;1.50;;
3689;SDS011;1861;50.240;8.596;2024-01-06T01:50:09;4.83;;;2.20;;
3689;SDS011;1861;50.240;8.596;2024-01-06T01:52:39;3.27;;;1.47;;
3689;SDS011;1861;50.240;8.596;2024-01-06T01:55:09;5.33;;;1.63;;
3689;SDS011;1861;50.240;8.596;2024-01-06T01:57:37;3.90;;;1.57;;
3689;SDS011;1861;50.240;8.596;2024-01-06T02:00:07;3.57;;;1.40;;
3689;SDS011;1861;50.240;8.596;2024-01-06T02:02:38;3.23;;;1.50;;
3689;SDS011;1861;50.240;8.596;2024-01-06T02:05:06;4.47;;;1.30;;
3689;SDS011;1861;50.240;8.596;2024-01-06T02:07:35;3.43;;;1.47;;
3689;SDS011;1861;50.240;8.596;2024-01-06T02:10:03;4.40;;;1.60;;
3689;SDS011;1861;50.240;8.596;2024-01-06T02:12:34;2.70;;;1.40;;
3689;SDS011;1861;50.240;8.596;2024-01-06T02:15:02;2.83;;;1.63;;
3689;SDS011;1861;50.240;8.596;2024-01-06T02:17:31;2.17;;;1.37;;
3689;SDS011;1861;50.240;8.596;2024-01-06T02:19:59;2.90;;;1.50;;
3689;SDS011;1861;50.240;8.596;2024-01-06T02:22:29;2.70;;;1.50;;
3689;SDS011;1861;50.240;8.596;2024-01-06T02:24:57;4.53;;;1.60;;
3689;SDS011;1861;50.240;8.596;2024-01-06T02:27:25;2.90;;;1.67;;
3689;SDS011;1861;50.240;8.596;2024-01-06T02:29:53;3.47;;;1.40;;
3689;SDS011;1861;50.240;8.596;2024-01-06T02:32:21;3.63;;;1.57;;
3689;SDS011;1861;50.240;8.596;2024-01-06T02:34:49;4.87;;;1.87;;
3689;SDS011;1861;50.240;8.596;2024-01-06T02:37:18;3.37;;;1.70;;
3689;SDS011;1861;50.240;8.596;2024-01-06T02:39:47;4.30;;;1.57;;
3689;SDS011;1861;50.240;8.596;2024-01-06T02:42:15;3.80;;;1.63;;
3689;SDS011;1861;50.240;8.596;2024-01-06T02:44:44;2.83;;;1.73;;
3689;SDS011;1861;50.240;8.596;2024-01-06T02:47:12;2.87;;;1.90;;
3689;SDS011;1861;50.240;8.596;2024-01-06T02:49:40;10.00;;;1.63;;
3689;SDS011;1861;50.240;8.596;2024-01-06T02:52:08;2.40;;;1.50;;
3689;SDS011;1861;50.240;8.596;2024-01-06T02:54:36;4.67;;;2.00;;
3689;SDS011;1861;50.240;8.596;2024-01-06T02:57:06;4.67;;;1.87;;
3689;SDS011;1861;50.240;8.596;2024-01-06T02:59:34;4.63;;;1.67;;
3689;SDS011;1861;50.240;8.596;2024-01-06T03:02:02;3.63;;;1.63;;
3689;SDS011;1861;50.240;8.596;2024-01-06T03:04:30;4.67;;;1.80;;
3689;SDS011;1861;50.240;8.596;2024-01-06T03:06:59;3.93;;;2.43;;
3689;SDS011;1861;50.240;8.596;2024-01-06T03:09:27;6.03;;;1.63;;
3689;SDS011;1861;50.240;8.596;2024-01-06T03:11:55;5.17;;;1.40;;
3689;SDS011;1861;50.240;8.596;2024-01-06T03:14:24;2.27;;;1.83;;
3689;SDS011;1861;50.240;8.596;2024-01-06T03:16:52;2.80;;;1.67;;
3689;SDS011;1861;50.240;8.596;2024-01-06T03:19:21;6.70;;;2.30;;
3689;SDS011;1861;50.240;8.596;2024-01-06T03:21:53;3.20;;;1.67;;
3689;SDS011;1861;50.240;8.596;2024-01-06T03:24:21;3.00;;;1.43;;
3689;SDS011;1861;50.240;8.596;2024-01-06T03:26:50;1.87;;;1.40;;
3689;SDS011;1861;50.240;8.596;2024-01-06T03:29:18;1.63;;;1.07;;
3689;SDS011;1861;50.240;8.596;2024-01-06T03:31:47;2.03;;;1.50;;
3689;SDS011;1861;50.240;8.596;2024-01-06T03:34:16;2.30;;;1.30;;
3689;SDS011;1861;50.240;8.596;2024-01-06T03:36:44;2.90;;;1.10;;
3689;SDS011;1861;50.240;8.596;2024-01-06T03:39:12;2.80;;;1.37;;
3689;SDS011;1861;50.240;8.596;2024-01-06T03:41:40;2.13;;;1.30;;
3689;SDS011;1861;50.240;8.596;2024-01-06T03:44:08;3.33;;;1.20;;
3689;SDS011;1861;50.240;8.596;2024-01-06T03:46:37;5.83;;;1.63;;
3689;SDS011;1861;50.240;8.596;2024-01-06T03:49:06;3.00;;;1.13;;
3689;SDS011;1861;50.240;8.596;2024-01-06T03:51:34;7.67;;;1.47;;
3689;SDS011;1861;50.240;8.596;2024-01-06T03:54:03;2.50;;;1.40;;
3689;SDS011;1861;50.240;8.596;2024-01-06T03:56:31;1.93;;;1.30;;
3689;SDS011;1861;50.240;8.596;2024-01-06T03:58:59;5.70;;;1.60;;
3689;SDS011;1861;50.240;8.596;2024-01-06T04:01:27;2.50;;;1.00;;
3689;SDS011;1861;50.240;8.596;2024-01-06T04:03:55;2.20;;;1.20;;
3689;SDS011;1861;50.240;8.596;2024-01-06T04:06:25;2.80;;;1.40;;
3689;SDS011;1861;50.240;8.596;2024-01-06T04:08:53;3.03;;;1.33;;
3689;SDS011;1861;50.240;8.596;2024-01-06T04:11:21;3.40;;;1.50;;
3689;SDS011;1861;50.240;8.596;2024-01-06T04:13:50;8.10;;;1.80;;
3689;SDS011;1861;50.240;8.596;2024-01-06T04:16:18;3.03;;;1.13;;
3689;SDS011;1861;50.240;8.596;2024-01-06T04:18:47;4.57;;;1.70;;
3689;SDS011;1861;50.240;8.596;2024-01-06T04:21:15;4.63;;;1.90;;
3689;SDS011;1861;50.240;8.596;2024-01-06T04:23:44;5.13;;;1.43;;
3689;SDS011;1861;50.240;8.596;2024-01-06T04:26:13;2.57;;;1.50;;
3689;SDS011;1861;50.240;8.596;2024-01-06T04:28:41;4.00;;;2.13;;
3689;SDS011;1861;50.240;8.596;2024-01-06T04:31:09;5.30;;;1.20;;
3689;SDS011;1861;50.240;8.596;2024-01-06T04:33:38;1.33;;;1.23;;
3689;SDS011;1861;50.240;8.596;2024-01-06T04:36:07;2.00;;;1.20;;
3689;SDS011;1861;50.240;8.596;2024-01-06T04:38:35;2.93;;;1.10;;
3689;SDS011;1861;50.240;8.596;2024-01-06T04:41:04;3.17;;;1.63;;
3689;SDS011;1861;50.240;8.596;2024-01-06T04:43:33;1.20;;;1.10;;
3689;SDS011;1861;50.240;8.596;2024-01-06T04:46:01;3.60;;;1.23;;
3689;SDS011;1861;50.240;8.596;2024-01-06T04:48:29;3.70;;;1.60;;
3689;SDS011;1861;50.240;8.596;2024-01-06T04:50:57;2.10;;;1.20;;
3689;SDS011;1861;50.240;8.596;2024-01-06T04:53:25;5.53;;;1.57;;
3689;SDS011;1861;50.240;8.596;2024-01-06T04:55:54;2.17;;;1.53;;
3689;SDS011;1861;50.240;8.596;2024-01-06T04:58:23;3.53;;;1.73;;
3689;SDS011;1861;50.240;8.596;2024-01-06T05:00:51;4.63;;;1.40;;
3689;SDS011;1861;50.240;8.596;2024-01-06T05:03:19;3.10;;;1.60;;
3689;SDS011;1861;50.240;8.596;2024-01-06T05:05:48;3.63;;;1.40;;
3689;SDS011;1861;50.240;8.596;2024-01-06T05:08:16;2.40;;;1.37;;
3689;SDS011;1861;50.240;8.596;2024-01-06T05:10:44;5.47;;;1.60;;
3689;SDS011;1861;50.240;8.596;2024-01-06T05:13:15;6.37;;;1.50;;
3689;SDS011;1861;50.240;8.596;2024-01-06T05:15:45;4.50;;;1.83;;
3689;SDS011;1861;50.240;8.596;2024-01-06T05:18:13;4.30;;;1.67;;
3689;SDS011;1861;50.240;8.596;2024-01-06T05:20:42;3.73;;;1.63;;
3689;SDS011;1861;50.240;8.596;2024-01-06T05:23:10;2.80;;;1.57;;
3689;SDS011;1861;50.240;8.596;2024-01-06T05:25:38;2.47;;;1.20;;
3689;SDS011;1861;50.240;8.596;2024-01-06T05:28:06;2.47;;;1.33;;
3689;SDS011;1861;50.240;8.596;2024-01-06T05:30:34;7.20;;;1.90;;
3689;SDS011;1861;50.240;8.596;2024-01-06T05:33:04;2.43;;;1.27;;
3689;SDS011;1861;50.240;8.596;2024-01-06T05:35:32;4.60;;;1.80;;
3689;SDS011;1861;50.240;8.596;2024-01-06T05:38:01;6.33;;;2.17;;
3689;SDS011;1861;50.240;8.596;2024-01-06T05:40:30;5.33;;;1.80;;
3689;SDS011;1861;50.240;8.596;2024-01-06T05:42:58;1.93;;;1.50;;
3689;SDS011;1861;50.240;8.596;2024-01-06T05:45:26;2.70;;;1.40;;
3689;SDS011;1861;50.240;8.596;2024-01-06T05:47:56;1.93;;;1.70;;
3689;SDS011;1861;50.240;8.596;2024-01-06T05:50:26;2.50;;;1.20;;
3689;SDS011;1861;50.240;8.596;2024-01-06T05:52:54;2.50;;;1.57;;
3689;SDS011;1861;50.240;8.596;2024-01-06T05:55:22;1.87;;;1.30;;
3689;SDS011;1861;50.240;8.596;2024-01-06T05:57:51;2.20;;;1.23;;
3689;SDS011;1861;50.240;8.596;2024-01-06T06:00:19;3.57;;;1.33;;
3689;SDS011;1861;50.240;8.596;2024-01-06T06:02:47;2.40;;;1.03;;
3689;SDS011;1861;50.240;8.596;2024-01-06T06:05:15;8.07;;;1.70;;
3689;SDS011;1861;50.240;8.596;2024-01-06T06:07:45;4.50;;;1.77;;
3689;SDS011;1861;50.240;8.596;2024-01-06T06:10:13;6.03;;;1.57;;
3689;SDS011;1861;50.240;8.596;2024-01-06T06:12:42;3.63;;;1.43;;
3689;SDS011;1861;50.240;8.596;2024-01-06T06:15:10;9.13;;;1.60;;
3689;SDS011;1861;50.240;8.596;2024-01-06T06:17:39;3.43;;;1.33;;
3689;SDS011;1861;50.240;8.596;2024-01-06T06:20:07;4.40;;;1.40;;
3689;SDS011;1861;50.240;8.596;2024-01-06T06:22:35;3.50;;;1.43;;
3689;SDS011;1861;50.240;8.596;2024-01-06T06:25:06;1.37;;;1.10;;
3689;SDS011;1861;50.240;8.596;2024-01-06T06:27:34;3.57;;;1.50;;
3689;SDS011;1861;50.240;8.596;2024-01-06T06:30:04;4.37;;;1.53;;
3689;SDS011;1861;50.240;8.596;2024-01-06T06:32:33;5.07;;;1.30;;
3689;SDS011;1861;50.240;8.596;2024-01-06T06:35:01;4.03;;;1.57;;
3689;SDS011;1861;50.240;8.596;2024-01-06T06:37:30;1.30;;;1.20;;
3689;SDS011;1861;50.240;8.596;2024-01-06T06:39:58;3.10;;;1.40;;
3689;SDS011;1861;50.240;8.596;2024-01-06T06:42:27;1.83;;;1.73;;
3689;SDS011;1861;50.240;8.596;2024-01-06T06:44:56;5.07;;;1.53;;
3689;SDS011;1861;50.240;8.596;2024-01-06T06:47:24;2.93;;;1.27;;
3689;SDS011;1861;50.240;8.596;2024-01-06T06:49:52;3.33;;;1.47;;
3689;SDS011;1861;50.240;8.596;2024-01-06T06:52:20;2.50;;;1.53;;
3689;SDS011;1861;50.240;8.596;2024-01-06T06:54:49;8.90;;;1.50;;
3689;SDS011;1861;50.240;8.596;2024-01-06T06:57:19;1.90;;;1.40;;
3689;SDS011;1861;50.240;8.596;2024-01-06T06:59:48;5.43;;;1.90;;
3689;SDS011;1861;50.240;8.596;2024-01-06T07:02:17;2.27;;;1.53;;
3689;SDS011;1861;50.240;8.596;2024-01-06T07:04:45;5.73;;;1.50;;
3689;SDS011;1861;50.240;8.596;2024-01-06T07:07:13;3.93;;;1.60;;
3689;SDS011;1861;50.240;8.596;2024-01-06T07:09:41;3.23;;;1.80;;
3689;SDS011;1861;50.240;8.596;2024-01-06T07:12:09;5.67;;;2.00;;
3689;SDS011;1861;50.240;8.596;2024-01-06T07:14:37;2.50;;;1.60;;
3689;SDS011;1861;50.240;8.596;2024-01-06T07:17:07;5.20;;;1.90;;
3689;SDS011;1861;50.240;8.596;2024-01-06T07:19:36;3.67;;;2.10;;
3689;SDS011;1861;50.240;8.596;2024-01-06T07:22:06;4.13;;;2.20;;
3689;SDS011;1861;50.240;8.596;2024-01-06T07:24:34;4.10;;;1.90;;
3689;SDS011;1861;50.240;8.596;2024-01-06T07:27:03;5.03;;;1.80;;
3689;SDS011;1861;50.240;8.596;2024-01-06T07:29:31;2.13;;;1.50;;
3689;SDS011;1861;50.240;8.596;2024-01-06T07:31:59;2.33;;;2.13;;
3689;SDS011;1861;50.240;8.596;2024-01-06T07:34:29;3.43;;;2.07;;
3689;SDS011;1861;50.240;8.596;2024-01-06T07:36:57;4.30;;;1.47;;
3689;SDS011;1861;50.240;8.596;2024-01-06T07:39:25;3.30;;;1.50;;
3689;SDS011;1861;50.240;8.596;2024-01-06T07:41:53;3.43;;;2.10;;
3689;SDS011;1861;50.240;8.596;2024-01-06T07:44:22;8.80;;;4.13;;
3689;SDS011;1861;50.240;8.596;2024-01-06T07:46:52;7.80;;;3.27;;
3689;SDS011;1861;50.240;8.596;2024-01-06T07:49:20;5.23;;;2.70;;
3689;SDS011;1861;50.240;8.596;2024-01-06T07:51:50;7.20;;;2.70;;
3689;SDS011;1861;50.240;8.596;2024-01-06T07:54:18;2.80;;;2.03;;
3689;SDS011;1861;50.240;8.596;2024-01-06T07:56:46;6.93;;;2.60;;
3689;SDS011;1861;50.240;8.596;2024-01-06T07:59:14;3.83;;;2.00;;
3689;SDS011;1861;50.240;8.596;2024-01-06T08:01:43;3.47;;;2.27;;
3689;SDS011;1861;50.240;8.596;2024-01-06T08:04:11;3.73;;;1.73;;
3689;SDS011;1861;50.240;8.596;2024-01-06T08:06:39;4.80;;;1.97;;
3689;SDS011;1861;50.240;8.596;2024-01-06T08:09:09;3.93;;;1.60;;
3689;SDS011;1861;50.240;8.596;2024-01-06T08:11:37;4.27;;;2.00;;
3689;SDS011;1861;50.240;8.596;2024-01-06T08:14:05;3.23;;;1.80;;
3689;SDS011;1861;50.240;8.596;2024-01-06T08:16:33;3.30;;;1.93;;
3689;SDS011;1861;50.240;8.596;2024-01-06T08:19:02;4.00;;;1.87;;
3689;SDS011;1861;50.240;8.596;2024-01-06T08:21:31;4.13;;;2.33;;
3689;SDS011;1861;50.240;8.596;2024-01-06T08:24:00;2.43;;;1.73;;
3689;SDS011;1861;50.240;8.596;2024-01-06T08:26:30;2.90;;;1.90;;
3689;SDS011;1861;50.240;8.596;2024-01-06T08:28:58;5.13;;;2.10;;
3689;SDS011;1861;50.240;8.596;2024-01-06T08:31:26;3.47;;;2.27;;
3689;SDS011;1861;50.240;8.596;2024-01-06T08:33:55;6.33;;;2.87;;
3689;SDS011;1861;50.240;8.596;2024-01-06T08:36:23;7.83;;;2.60;;
3689;SDS011;1861;50.240;8.596;2024-01-06T08:38:51;5.50;;;2.57;;
3689;SDS011;1861;50.240;8.596;2024-01-06T08:41:20;2.90;;;2.20;;
3689;SDS011;1861;50.240;8.596;2024-01-06T08:43:49;6.43;;;1.97;;
3689;SDS011;1861;50.240;8.596;2024-01-06T08:46:17;4.00;;;1.93;;
3689;SDS011;1861;50.240;8.596;2024-01-06T08:48:45;5.10;;;1.90;;
3689;SDS011;1861;50.240;8.596;2024-01-06T08:51:13;9.37;;;2.50;;
3689;SDS011;1861;50.240;8.596;2024-01-06T08:53:42;2.53;;;1.73;;
3689;SDS011;1861;50.240;8.596;2024-01-06T08:56:10;15.57;;;10.17;;
3689;SDS011;1861;50.240;8.596;2024-01-06T08:58:38;9.87;;;3.60;;
3689;SDS011;1861;50.240;8.596;2024-01-06T09:01:08;6.70;;;2.50;;
3689;SDS011;1861;50.240;8.596;2024-01-06T09:03:36;5.30;;;2.07;;
3689;SDS011;1861;50.240;8.596;2024-01-06T09:06:04;3.50;;;2.60;;
3689;SDS011;1861;50.240;8.596;2024-01-06T09:08:32;2.60;;;2.00;;
3689;SDS011;1861;50.240;8.596;2024-01-06T09:11:00;5.77;;;2.20;;
3689;SDS011;1861;50.240;8.596;2024-01-06T09:13:29;6.57;;;2.00;;
3689;SDS011;1861;50.240;8.596;2024-01-06T09:15:58;3.57;;;2.50;;
3689;SDS011;1861;50.240;8.596;2024-01-06T09:18:30;4.97;;;2.30;;
3689;SDS011;1861;50.240;8.596;2024-01-06T09:20:58;6.60;;;2.50;;
3689;SDS011;1861;50.240;8.596;2024-01-06T09:23:26;8.83;;;2.90;;
3689;SDS011;1861;50.240;8.596;2024-01-06T09:25:54;3.20;;;2.57;;
3689;SDS011;1861;50.240;8.596;2024-01-06T09:28:22;3.17;;;1.97;;
3689;SDS011;1861;50.240;8.596;2024-01-06T09:30:50;5.97;;;2.37;;
3689;SDS011;1861;50.240;8.596;2024-01-06T09:33:21;6.17;;;2.50;;
3689;SDS011;1861;50.240;8.596;2024-01-06T09:35:51;3.97;;;2.17;;
3689;SDS011;1861;50.240;8.596;2024-01-06T09:38:19;6.73;;;2.43;;
3689;SDS011;1861;50.240;8.596;2024-01-06T09:40:47;9.83;;;3.10;;
3689;SDS011;1861;50.240;8.596;2024-01-06T09:43:16;5.13;;;2.97;;
3689;SDS011;1861;50.240;8.596;2024-01-06T09:45:45;5.20;;;2.50;;
3689;SDS011;1861;50.240;8.596;2024-01-06T09:48:17;3.73;;;2.30;;
3689;SDS011;1861;50.240;8.596;2024-01-06T09:50:46;7.63;;;2.60;;
3689;SDS011;1861;50.240;8.596;2024-01-06T09:53:17;5.40;;;2.83;;
3689;SDS011;1861;50.240;8.596;2024-01-06T09:55:45;10.20;;;2.60;;
3689;SDS011;1861;50.240;8.596;2024-01-06T09:58:18;9.77;;;2.77;;
3689;SDS011;1861;50.240;8.596;2024-01-06T10:00:47;3.20;;;2.83;;
3689;SDS011;1861;50.240;8.596;2024-01-06T10:03:16;6.20;;;3.70;;
3689;SDS011;1861;50.240;8.596;2024-01-06T10:05:44;7.33;;;4.20;;
3689;SDS011;1861;50.240;8.596;2024-01-06T10:08:14;7.50;;;3.80;;
3689;SDS011;1861;50.240;8.596;2024-01-06T10:10:44;4.70;;;3.50;;
3689;SDS011;1861;50.240;8.596;2024-01-06T10:13:13;6.77;;;3.00;;
3689;SDS011;1861;50.240;8.596;2024-01-06T10:15:44;5.00;;;2.23;;
3689;SDS011;1861;50.240;8.596;2024-01-06T10:18:12;11.23;;;2.57;;
3689;SDS011;1861;50.240;8.596;2024-01-06T10:20:41;5.60;;;3.20;;
3689;SDS011;1861;50.240;8.596;2024-01-06T10:23:09;3.80;;;2.83;;
3689;SDS011;1861;50.240;8.596;2024-01-06T10:25:38;3.57;;;2.67;;
3689;SDS011;1861;50.240;8.596;2024-01-06T10:28:10;7.17;;;2.30;;
3689;SDS011;1861;50.240;8.596;2024-01-06T10:30:39;6.00;;;2.87;;
3689;SDS011;1861;50.240;8.596;2024-01-06T10:33:08;4.13;;;2.53;;
3689;SDS011;1861;50.240;8.596;2024-01-06T10:35:36;6.10;;;3.47;;
3689;SDS011;1861;50.240;8.596;2024-01-06T10:38:05;7.53;;;3.47;;
3689;SDS011;1861;50.240;8.596;2024-01-06T10:40:34;6.47;;;3.70;;
3689;SDS011;1861;50.240;8.596;2024-01-06T10:43:04;7.60;;;3.57;;
3689;SDS011;1861;50.240;8.596;2024-01-06T10:45:33;6.63;;;3.67;;
3689;SDS011;1861;50.240;8.596;2024-01-06T10:48:03;8.10;;;4.23;;
3689;SDS011;1861;50.240;8.596;2024-01-06T10:50:33;7.53;;;2.90;;
3689;SDS011;1861;50.240;8.596;2024-01-06T10:53:01;6.53;;;2.97;;
3689;SDS011;1861;50.240;8.596;2024-01-06T10:55:30;2.73;;;2.50;;
3689;SDS011;1861;50.240;8.596;2024-01-06T10:57:59;4.63;;;2.67;;
3689;SDS011;1861;50.240;8.596;2024-01-06T11:00:30;8.93;;;2.80;;
3689;SDS011;1861;50.240;8.596;2024-01-06T11:02:59;4.27;;;2.43;;
3689;SDS011;1861;50.240;8.596;2024-01-06T11:05:28;12.63;;;4.37;;
3689;SDS011;1861;50.240;8.596;2024-01-06T11:07:57;18.30;;;7.50;;
3689;SDS011;1861;50.240;8.596;2024-01-06T11:10:27;6.03;;;3.67;;
3689;SDS011;1861;50.240;8.596;2024-01-06T11:13:08;4.53;;;2.83;;
3689;SDS011;1861;50.240;8.596;2024-01-06T11:15:42;3.23;;;2.40;;
3689;SDS011;1861;50.240;8.596;2024-01-06T11:21:17;5.60;;;2.50;;
3689;SDS011;1861;50.240;8.596;2024-01-06T11:24:05;5.87;;;3.03;;
3689;SDS011;1861;50.240;8.596;2024-01-06T11:26:43;5.93;;;2.90;;
3689;SDS011;1861;50.240;8.596;2024-01-06T11:29:12;6.13;;;3.03;;
3689;SDS011;1861;50.240;8.596;2024-01-06T11:31:41;5.23;;;3.10;;
3689;SDS011;1861;50.240;8.596;2024-01-06T11:34:14;5.80;;;2.90;;
3689;SDS011;1861;50.240;8.596;2024-01-06T11:36:46;6.80;;;3.10;;
3689;SDS011;1861;50.240;8.596;2024-01-06T11:39:34;6.50;;;3.37;;
3689;SDS011;1861;50.240;8.596;2024-01-06T11:42:04;10.33;;;3.40;;
3689;SDS011;1861;50.240;8.596;2024-01-06T11:44:36;4.27;;;3.10;;
3689;SDS011;1861;50.240;8.596;2024-01-06T11:47:07;6.03;;;3.47;;
3689;SDS011;1861;50.240;8.596;2024-01-06T11:49:38;7.23;;;3.10;;
3689;SDS011;1861;50.240;8.596;2024-01-06T11:52:06;6.40;;;3.70;;
3689;SDS011;1861;50.240;8.596;2024-01-06T11:54:34;5.73;;;3.50;;
3689;SDS011;1861;50.240;8.596;2024-01-06T11:57:03;7.77;;;3.50;;
3689;SDS011;1861;50.240;8.596;2024-01-06T11:59:31;7.43;;;4.00;;
3689;SDS011;1861;50.240;8.596;2024-01-06T12:01:59;7.23;;;3.80;;
3689;SDS011;1861;50.240;8.596;2024-01-06T12:04:29;7.50;;;2.73;;
3689;SDS011;1861;50.240;8.596;2024-01-06T12:07:04;5.40;;;3.40;;
3689;SDS011;1861;50.240;8.596;2024-01-06T12:09:33;6.77;;;3.33;;
3689;SDS011;1861;50.240;8.596;2024-01-06T12:12:02;5.03;;;3.10;;
3689;SDS011;1861;50.240;8.596;2024-01-06T12:14:32;6.30;;;2.80;;
3689;SDS011;1861;50.240;8.596;2024-01-06T12:17:00;4.77;;;3.40;;
3689;SDS011;1861;50.240;8.596;2024-01-06T12:19:31;8.93;;;3.87;;
3689;SDS011;1861;50.240;8.596;2024-01-06T12:22:04;7.17;;;3.40;;
3689;SDS011;1861;50.240;8.596;2024-01-06T12:24:33;8.47;;;3.83;;
3689;SDS011;1861;50.240;8.596;2024-01-06T12:27:01;7.30;;;3.50;;
3689;SDS011;1861;50.240;8.596;2024-01-06T12:29:30;11.17;;;3.90;;
3689;SDS011;1861;50.240;8.596;2024-01-06T12:31:58;6.60;;;3.60;;
3689;SDS011;1861;50.240;8.596;2024-01-06T12:34:27;5.10;;;3.03;;
3689;SDS011;1861;50.240;8.596;2024-01-06T12:36:57;4.70;;;3.10;;
3689;SDS011;1861;50.240;8.596;2024-01-06T12:39:28;4.97;;;3.60;;
3689;SDS011;1861;50.240;8.596;2024-01-06T12:41:56;8.23;;;3.43;;
3689;SDS011;1861;50.240;8.596;2024-01-06T12:44:26;7.53;;;4.13;;
3689;SDS011;1861;50.240;8.596;2024-01-06T12:46:54;8.77;;;4.30;;
3689;SDS011;1861;50.240;8.596;2024-01-06T12:49:22;7.37;;;3.90;;
3689;SDS011;1861;50.240;8.596;2024-01-06T12:51:51;8.70;;;3.90;;
3689;SDS011;1861;50.240;8.596;2024-01-06T12:54:21;9.30;;;3.20;;
3689;SDS011;1861;50.240;8.596;2024-01-06T12:56:49;4.30;;;3.27;;
3689;SDS011;1861;50.240;8.596;2024-01-06T12:59:17;6.00;;;3.43;;
3689;SDS011;1861;50.240;8.596;2024-01-06T13:01:46;7.80;;;3.70;;
3689;SDS011;1861;50.240;8.596;2024-01-06T13:04:15;7.83;;;3.53;;
3689;SDS011;1861;50.240;8.596;2024-01-06T13:06:45;5.37;;;3.60;;
3689;SDS011;1861;50.240;8.596;2024-01-06T13:09:15;8.70;;;3.83;;
3689;SDS011;1861;50.240;8.596;2024-01-06T13:11:45;6.47;;;3.97;;
3689;SDS011;1861;50.240;8.596;2024-01-06T13:14:14;6.07;;;3.40;;
3689;SDS011;1861;50.240;8.596;2024-01-06T13:16:42;6.13;;;3.73;;
3689;SDS011;1861;50.240;8.596;2024-01-06T13:19:10;9.70;;;4.57;;
3689;SDS011;1861;50.240;8.596;2024-01-06T13:21:38;9.00;;;4.17;;
3689;SDS011;1861;50.240;8.596;2024-01-06T13:24:07;6.17;;;3.57;;
3689;SDS011;1861;50.240;8.596;2024-01-06T13:26:35;3.50;;;3.10;;
3689;SDS011;1861;50.240;8.596;2024-01-06T13:29:05;8.03;;;3.70;;
3689;SDS011;1861;50.240;8.596;2024-01-06T13:31:33;6.20;;;3.53;;
3689;SDS011;1861;50.240;8.596;2024-01-06T13:34:01;8.97;;;3.90;;
3689;SDS011;1861;50.240;8.596;2024-01-06T13:36:30;6.30;;;4.40;;
3689;SDS011;1861;50.240;8.596;2024-01-06T13:38:58;5.13;;;3.50;;
3689;SDS011;1861;50.240;8.596;2024-01-06T13:41:26;6.73;;;3.40;;
3689;SDS011;1861;50.240;8.596;2024-01-06T13:43:55;5.50;;;3.40;;
3689;SDS011;1861;50.240;8.596;2024-01-06T13:46:24;6.60;;;4.03;;
3689;SDS011;1861;50.240;8.596;2024-01-06T13:48:53;6.43;;;3.20;;
3689;SDS011;1861;50.240;8.596;2024-01-06T13:51:21;3.77;;;2.70;;
3689;SDS011;1861;50.240;8.596;2024-01-06T13:53:50;4.40;;;2.20;;
3689;SDS011;1861;50.240;8.596;2024-01-06T13:56:18;5.43;;;2.93;;
3689;SDS011;1861;50.240;8.596;2024-01-06T13:58:46;5.00;;;3.17;;
3689;SDS011;1861;50.240;8.596;2024-01-06T14:01:14;3.77;;;2.80;;
3689;SDS011;1861;50.240;8.596;2024-01-06T14:03:44;2.80;;;2.47;;
3689;SDS011;1861;50.240;8.596;2024-01-06T14:06:12;4.10;;;2.90;;
3689;SDS011;1861;50.240;8.596;2024-01-06T14:08:41;3.43;;;2.73;;
3689;SDS011;1861;50.240;8.596;2024-01-06T14:11:10;4.47;;;3.17;;
3689;SDS011;1861;50.240;8.596;2024-01-06T14:13:38;3.13;;;2.13;;
3689;SDS011;1861;50.240;8.596;2024-01-06T14:16:06;3.63;;;2.10;;
3689;SDS011;1861;50.240;8.596;2024-01-06T14:18:34;4.87;;;3.13;;
3689;SDS011;1861;50.240;8.596;2024-01-06T14:21:04;2.97;;;2.40;;
3689;SDS011;1861;50.240;8.596;2024-01-06T14:23:33;3.57;;;2.70;;
3689;SDS011;1861;50.240;8.596;2024-01-06T14:26:01;4.93;;;2.57;;
3689;SDS011;1861;50.240;8.596;2024-01-06T14:28:30;3.90;;;2.60;;
3689;SDS011;1861;50.240;8.596;2024-01-06T14:30:58;3.17;;;2.03;;
3689;SDS011;1861;50.240;8.596;2024-01-06T14:33:26;6.07;;;2.47;;
3689;SDS011;1861;50.240;8.596;2024-01-06T14:35:54;3.80;;;2.57;;
3689;SDS011;1861;50.240;8.596;2024-01-06T14:38:24;4.23;;;2.80;;
3689;SDS011;1861;50.240;8.596;2024-01-06T14:40:52;3.77;;;2.77;;
3689;SDS011;1861;50.240;8.596;2024-01-06T14:43:20;3.13;;;2.40;;
3689;SDS011;1861;50.240;8.596;2024-01-06T14:45:48;3.53;;;2.50;;
3689;SDS011;1861;50.240;8.596;2024-01-06T14:48:16;4.70;;;2.97;;
3689;SDS011;1861;50.240;8.596;2024-01-06T14:50:45;3.90;;;2.20;;
3689;SDS011;1861;50.240;8.596;2024-01-06T14:53:14;3.83;;;2.30;;
3689;SDS011;1861;50.240;8.596;2024-01-06T14:55:44;2.43;;;2.23;;
3689;SDS011;1861;50.240;8.596;2024-01-06T14:58:12;3.37;;;2.37;;
3689;SDS011;1861;50.240;8.596;2024-01-06T15:00:40;5.83;;;2.83;;
3689;SDS011;1861;50.240;8.596;2024-01-06T15:03:08;3.80;;;2.30;;
3689;SDS011;1861;50.240;8.596;2024-01-06T15:05:37;2.60;;;2.20;;
3689;SDS011;1861;50.240;8.596;2024-01-06T15:08:05;3.50;;;2.30;;
3689;SDS011;1861;50.240;8.596;2024-01-06T15:10:34;3.70;;;2.27;;
3689;SDS011;1861;50.240;8.596;2024-01-06T15:13:03;4.70;;;2.60;;
3689;SDS011;1861;50.240;8.596;2024-01-06T15:15:31;3.60;;;2.77;;
3689;SDS011;1861;50.240;8.596;2024-01-06T15:18:00;5.13;;;2.40;;
3689;SDS011;1861;50.240;8.596;2024-01-06T15:20:28;3.03;;;2.33;;
3689;SDS011;1861;50.240;8.596;2024-01-06T15:22:56;3.93;;;2.40;;
3689;SDS011;1861;50.240;8.596;2024-01-06T15:25:24;4.30;;;2.57;;
3689;SDS011;1861;50.240;8.596;2024-01-06T15:27:54;3.60;;;2.40;;